sensor_id;sensor_type;location;lat;lon;timestamp;P1;durP1;ratioP1;P2;durP2;ratioP2
32501;SDS011;18952;52.516;13.460;2022-09-09T00:04:30;17.63;;;15.93;;
32501;SDS011;18952;52.516;13.460;2022-09-09T00:07:28;17.38;;;15.63;;
32501;SDS011;18952;52.516;13.460;2022-09-09T00:16:04;17.42;;;15.73;;
32501;SDS011;18952;52.516;13.460;2022-09-09T00:19:06;17.15;;;15.40;;
32501;SDS011;18952;52.516;13.460;2022-09-09T00:21:54;17.50;;;15.55;;
32501;SDS011;18952;52.516;13.460;2022-09-09T00:25:14;18.02;;;16.33;;
32501;SDS011;18952;52.516;13.460;2022-09-09T00:27:24;20.35;;;17.60;;
32501;SDS011;18952;52.516;13.460;2022-09-09T00:32:49;17.92;;;16.17;;
32501;SDS011;18952;52.516;13.460;2022-09-09T00:35:29;17.60;;;15.80;;
32501;SDS011;18952;52.516;13.460;2022-09-09T00:38:19;18.35;;;16.55;;
32501;SDS011;18952;52.516;13.460;2022-09-09T00:41:06;17.67;;;16.00;;
32501;SDS011;18952;52.516;13.460;2022-09-09T00:43:46;17.73;;;16.13;;
32501;SDS011;18952;52.516;13.460;2022-09-09T00:49:38;17.73;;;16.02;;
32501;SDS011;18952;52.516;13.460;2022-09-09T00:55:21;18.92;;;17.13;;
32501;SDS011;18952;52.516;13.460;2022-09-09T00:58:00;19.08;;;17.35;;
32501;SDS011;18952;52.516;13.460;2022-09-09T01:00:30;20.52;;;17.60;;
32501;SDS011;18952;52.516;13.460;2022-09-09T01:03:36;18.35;;;16.45;;
32501;SDS011;18952;52.516;13.460;2022-09-09T01:14:58;16.90;;;15.23;;
32501;SDS011;18952;52.516;13.460;2022-09-09T01:17:39;17.85;;;15.95;;
32501;SDS011;18952;52.516;13.460;2022-09-09T01:26:21;15.00;;;13.60;;
32501;SDS011;18952;52.516;13.460;2022-09-09T01:29:08;16.77;;;15.18;;
32501;SDS011;18952;52.516;13.460;2022-09-09T01:31:40;17.15;;;15.45;;
32501;SDS011;18952;52.516;13.460;2022-09-09T01:34:11;15.65;;;13.93;;
32501;SDS011;18952;52.516;13.460;2022-09-09T01:36:58;15.10;;;13.57;;
32501;SDS011;18952;52.516;13.460;2022-09-09T01:39:34;14.73;;;13.23;;
32501;SDS011;18952;52.516;13.460;2022-09-09T01:42:03;14.57;;;13.13;;
32501;SDS011;18952;52.516;13.460;2022-09-09T01:44:32;15.52;;;13.55;;
32501;SDS011;18952;52.516;13.460;2022-09-09T01:47:03;15.05;;;13.50;;
32501;SDS011;18952;52.516;13.460;2022-09-09T01:49:31;17.25;;;14.85;;
32501;SDS011;18952;52.516;13.460;2022-09-09T01:51:58;15.27;;;13.52;;
32501;SDS011;18952;52.516;13.460;2022-09-09T01:54:26;16.73;;;15.02;;
32501;SDS011;18952;52.516;13.460;2022-09-09T02:05:03;16.60;;;15.10;;
32501;SDS011;18952;52.516;13.460;2022-09-09T02:07:59;17.77;;;15.88;;
32501;SDS011;18952;52.516;13.460;2022-09-09T02:10:55;17.40;;;15.80;;
32501;SDS011;18952;52.516;13.460;2022-09-09T02:13:27;18.35;;;16.55;;
32501;SDS011;18952;52.516;13.460;2022-09-09T02:16:07;16.63;;;15.07;;
32501;SDS011;18952;52.516;13.460;2022-09-09T02:18:56;16.73;;;14.67;;
32501;SDS011;18952;52.516;13.460;2022-09-09T02:21:30;16.42;;;14.73;;
32501;SDS011;18952;52.516;13.460;2022-09-09T02:23:58;15.05;;;13.65;;
32501;SDS011;18952;52.516;13.460;2022-09-09T02:26:27;15.20;;;13.85;;
32501;SDS011;18952;52.516;13.460;2022-09-09T02:28:57;15.20;;;13.77;;
32501;SDS011;18952;52.516;13.460;2022-09-09T02:31:28;16.92;;;15.27;;
32501;SDS011;18952;52.516;13.460;2022-09-09T02:33:58;14.40;;;13.00;;
32501;SDS011;18952;52.516;13.460;2022-09-09T02:36:29;14.05;;;12.55;;
32501;SDS011;18952;52.516;13.460;2022-09-09T02:38:58;14.05;;;12.65;;
32501;SDS011;18952;52.516;13.460;2022-09-09T02:41:28;14.85;;;13.35;;
32501;SDS011;18952;52.516;13.460;2022-09-09T02:44:00;15.45;;;13.98;;
32501;SDS011;18952;52.516;13.460;2022-09-09T02:49:43;15.73;;;12.98;;
32501;SDS011;18952;52.516;13.460;2022-09-09T02:52:26;14.00;;;12.50;;
32501;SDS011;18952;52.516;13.460;2022-09-09T02:55:24;14.73;;;13.10;;
32501;SDS011;18952;52.516;13.460;2022-09-09T02:58:04;14.60;;;12.50;;
32501;SDS011;18952;52.516;13.460;2022-09-09T03:00:33;14.50;;;13.07;;
32501;SDS011;18952;52.516;13.460;2022-09-09T03:03:06;14.32;;;12.98;;
32501;SDS011;18952;52.516;13.460;2022-09-09T03:05:35;14.43;;;12.70;;
32501;SDS011;18952;52.516;13.460;2022-09-09T03:08:03;16.50;;;13.10;;
32501;SDS011;18952;52.516;13.460;2022-09-09T03:10:32;14.85;;;12.88;;
32501;SDS011;18952;52.516;13.460;2022-09-09T03:12:59;15.00;;;13.43;;
32501;SDS011;18952;52.516;13.460;2022-09-09T03:15:27;16.20;;;12.27;;
32501;SDS011;18952;52.516;13.460;2022-09-09T03:17:56;13.43;;;12.18;;
32501;SDS011;18952;52.516;13.460;2022-09-09T03:20:25;14.90;;;13.50;;
32501;SDS011;18952;52.516;13.460;2022-09-09T03:22:54;15.38;;;12.25;;
32501;SDS011;18952;52.516;13.460;2022-09-09T03:25:23;13.52;;;12.13;;
32501;SDS011;18952;52.516;13.460;2022-09-09T03:27:50;13.18;;;11.73;;
32501;SDS011;18952;52.516;13.460;2022-09-09T03:30:18;13.38;;;12.05;;
32501;SDS011;18952;52.516;13.460;2022-09-09T03:32:46;14.30;;;12.10;;
32501;SDS011;18952;52.516;13.460;2022-09-09T03:35:15;13.82;;;11.63;;
32501;SDS011;18952;52.516;13.460;2022-09-09T03:37:44;13.52;;;11.90;;
32501;SDS011;18952;52.516;13.460;2022-09-09T03:40:14;13.02;;;11.65;;
32501;SDS011;18952;52.516;13.460;2022-09-09T03:42:44;14.43;;;11.60;;
32501;SDS011;18952;52.516;13.460;2022-09-09T03:45:18;14.85;;;12.90;;
32501;SDS011;18952;52.516;13.460;2022-09-09T03:47:48;13.10;;;11.77;;
32501;SDS011;18952;52.516;13.460;2022-09-09T03:50:20;12.48;;;11.27;;
32501;SDS011;18952;52.516;13.460;2022-09-09T03:52:48;14.27;;;11.07;;
32501;SDS011;18952;52.516;13.460;2022-09-09T03:55:16;17.48;;;10.77;;
32501;SDS011;18952;52.516;13.460;2022-09-09T03:57:42;12.73;;;11.30;;
32501;SDS011;18952;52.516;13.460;2022-09-09T04:00:09;12.32;;;10.85;;
32501;SDS011;18952;52.516;13.460;2022-09-09T04:02:38;13.82;;;11.10;;
32501;SDS011;18952;52.516;13.460;2022-09-09T04:05:06;11.90;;;10.43;;
32501;SDS011;18952;52.516;13.460;2022-09-09T04:07:34;11.32;;;10.20;;
32501;SDS011;18952;52.516;13.460;2022-09-09T04:10:02;14.70;;;10.20;;
32501;SDS011;18952;52.516;13.460;2022-09-09T04:12:29;12.95;;;10.32;;
32501;SDS011;18952;52.516;13.460;2022-09-09T04:14:57;12.55;;;10.27;;
32501;SDS011;18952;52.516;13.460;2022-09-09T04:17:25;12.30;;;10.05;;
32501;SDS011;18952;52.516;13.460;2022-09-09T04:19:53;12.23;;;10.93;;
32501;SDS011;18952;52.516;13.460;2022-09-09T04:22:21;15.43;;;9.88;;
32501;SDS011;18952;52.516;13.460;2022-09-09T04:24:49;11.55;;;10.38;;
32501;SDS011;18952;52.516;13.460;2022-09-09T04:27:17;14.30;;;10.35;;
32501;SDS011;18952;52.516;13.460;2022-09-09T04:29:45;12.85;;;10.45;;
32501;SDS011;18952;52.516;13.460;2022-09-09T04:32:13;13.75;;;11.48;;
32501;SDS011;18952;52.516;13.460;2022-09-09T04:34:41;13.80;;;11.88;;
32501;SDS011;18952;52.516;13.460;2022-09-09T04:39:44;15.20;;;12.25;;
32501;SDS011;18952;52.516;13.460;2022-09-09T04:42:11;17.95;;;12.48;;
32501;SDS011;18952;52.516;13.460;2022-09-09T04:44:39;18.90;;;13.60;;
32501;SDS011;18952;52.516;13.460;2022-09-09T04:47:06;15.75;;;13.20;;
32501;SDS011;18952;52.516;13.460;2022-09-09T04:49:34;17.30;;;12.23;;
32501;SDS011;18952;52.516;13.460;2022-09-09T04:52:03;19.80;;;11.50;;
32501;SDS011;18952;52.516;13.460;2022-09-09T04:54:31;17.98;;;12.20;;
32501;SDS011;18952;52.516;13.460;2022-09-09T04:56:59;14.57;;;11.52;;
32501;SDS011;18952;52.516;13.460;2022-09-09T04:59:28;21.23;;;14.07;;
32501;SDS011;18952;52.516;13.460;2022-09-09T05:01:55;15.63;;;11.25;;
32501;SDS011;18952;52.516;13.460;2022-09-09T05:04:24;13.93;;;11.95;;
32501;SDS011;18952;52.516;13.460;2022-09-09T05:06:52;18.83;;;9.88;;
32501;SDS011;18952;52.516;13.460;2022-09-09T05:09:20;15.80;;;9.43;;
32501;SDS011;18952;52.516;13.460;2022-09-09T05:11:48;14.00;;;8.70;;
32501;SDS011;18952;52.516;13.460;2022-09-09T05:14:25;15.13;;;8.40;;
32501;SDS011;18952;52.516;13.460;2022-09-09T05:16:51;14.75;;;8.63;;
32501;SDS011;18952;52.516;13.460;2022-09-09T05:19:22;14.25;;;8.48;;
32501;SDS011;18952;52.516;13.460;2022-09-09T05:22:03;19.17;;;8.25;;
32501;SDS011;18952;52.516;13.460;2022-09-09T05:24:30;15.07;;;8.13;;
32501;SDS011;18952;52.516;13.460;2022-09-09T05:26:57;16.35;;;8.40;;
32501;SDS011;18952;52.516;13.460;2022-09-09T05:29:26;10.90;;;7.75;;
32501;SDS011;18952;52.516;13.460;2022-09-09T05:31:52;17.42;;;8.07;;
32501;SDS011;18952;52.516;13.460;2022-09-09T05:34:21;12.95;;;8.38;;
32501;SDS011;18952;52.516;13.460;2022-09-09T05:36:48;15.95;;;7.97;;
32501;SDS011;18952;52.516;13.460;2022-09-09T05:39:17;13.85;;;7.95;;
32501;SDS011;18952;52.516;13.460;2022-09-09T05:41:45;15.52;;;7.63;;
32501;SDS011;18952;52.516;13.460;2022-09-09T05:44:11;21.27;;;8.93;;
32501;SDS011;18952;52.516;13.460;2022-09-09T05:46:40;15.27;;;8.27;;
32501;SDS011;18952;52.516;13.460;2022-09-09T05:49:08;15.15;;;7.50;;
32501;SDS011;18952;52.516;13.460;2022-09-09T05:51:36;15.70;;;8.25;;
32501;SDS011;18952;52.516;13.460;2022-09-09T05:54:04;14.07;;;7.95;;
32501;SDS011;18952;52.516;13.460;2022-09-09T05:56:31;11.00;;;7.30;;
32501;SDS011;18952;52.516;13.460;2022-09-09T05:58:59;12.40;;;8.23;;
32501;SDS011;18952;52.516;13.460;2022-09-09T06:01:28;12.30;;;7.88;;
32501;SDS011;18952;52.516;13.460;2022-09-09T06:03:58;15.80;;;7.93;;
32501;SDS011;18952;52.516;13.460;2022-09-09T06:06:27;18.00;;;8.27;;
32501;SDS011;18952;52.516;13.460;2022-09-09T06:08:58;17.35;;;11.23;;
32501;SDS011;18952;52.516;13.460;2022-09-09T06:11:30;18.02;;;8.88;;
32501;SDS011;18952;52.516;13.460;2022-09-09T06:13:59;11.85;;;7.28;;
32501;SDS011;18952;52.516;13.460;2022-09-09T06:16:28;13.55;;;6.72;;
32501;SDS011;18952;52.516;13.460;2022-09-09T06:18:57;11.00;;;6.68;;
32501;SDS011;18952;52.516;13.460;2022-09-09T06:21:26;12.52;;;6.65;;
32501;SDS011;18952;52.516;13.460;2022-09-09T06:23:55;11.68;;;7.03;;
32501;SDS011;18952;52.516;13.460;2022-09-09T06:26:27;8.25;;;5.57;;
32501;SDS011;18952;52.516;13.460;2022-09-09T06:29:03;13.98;;;5.35;;
32501;SDS011;18952;52.516;13.460;2022-09-09T06:31:33;9.80;;;5.57;;
32501;SDS011;18952;52.516;13.460;2022-09-09T06:34:04;9.40;;;5.43;;
32501;SDS011;18952;52.516;13.460;2022-09-09T06:36:34;9.75;;;4.88;;
32501;SDS011;18952;52.516;13.460;2022-09-09T06:39:04;10.00;;;5.07;;
32501;SDS011;18952;52.516;13.460;2022-09-09T06:44:06;10.18;;;5.18;;
32501;SDS011;18952;52.516;13.460;2022-09-09T06:46:34;7.88;;;4.88;;
32501;SDS011;18952;52.516;13.460;2022-09-09T06:49:02;9.13;;;5.05;;
32501;SDS011;18952;52.516;13.460;2022-09-09T06:51:31;9.45;;;4.63;;
32501;SDS011;18952;52.516;13.460;2022-09-09T06:54:02;9.65;;;4.80;;
32501;SDS011;18952;52.516;13.460;2022-09-09T06:56:31;12.98;;;5.32;;
32501;SDS011;18952;52.516;13.460;2022-09-09T06:59:02;8.88;;;4.50;;
32501;SDS011;18952;52.516;13.460;2022-09-09T07:01:34;9.77;;;4.50;;
32501;SDS011;18952;52.516;13.460;2022-09-09T07:04:04;6.95;;;3.80;;
32501;SDS011;18952;52.516;13.460;2022-09-09T07:06:33;12.93;;;4.00;;
32501;SDS011;18952;52.516;13.460;2022-09-09T07:09:02;12.02;;;4.47;;
32501;SDS011;18952;52.516;13.460;2022-09-09T07:11:44;14.13;;;4.72;;
32501;SDS011;18952;52.516;13.460;2022-09-09T07:14:14;13.95;;;5.35;;
32501;SDS011;18952;52.516;13.460;2022-09-09T07:16:44;12.02;;;4.47;;
32501;SDS011;18952;52.516;13.460;2022-09-09T07:19:12;7.32;;;3.50;;
32501;SDS011;18952;52.516;13.460;2022-09-09T07:21:41;9.88;;;3.55;;
32501;SDS011;18952;52.516;13.460;2022-09-09T07:24:09;10.65;;;3.50;;
32501;SDS011;18952;52.516;13.460;2022-09-09T07:26:38;10.13;;;3.95;;
32501;SDS011;18952;52.516;13.460;2022-09-09T07:29:10;10.98;;;3.97;;
32501;SDS011;18952;52.516;13.460;2022-09-09T07:31:41;11.15;;;4.75;;
32501;SDS011;18952;52.516;13.460;2022-09-09T07:34:17;7.40;;;3.17;;
32501;SDS011;18952;52.516;13.460;2022-09-09T07:36:47;9.95;;;3.70;;
32501;SDS011;18952;52.516;13.460;2022-09-09T07:39:15;10.02;;;3.83;;
32501;SDS011;18952;52.516;13.460;2022-09-09T07:41:46;7.28;;;3.55;;
32501;SDS011;18952;52.516;13.460;2022-09-09T07:44:17;8.68;;;3.55;;
32501;SDS011;18952;52.516;13.460;2022-09-09T07:46:47;8.88;;;4.30;;
32501;SDS011;18952;52.516;13.460;2022-09-09T07:49:15;9.23;;;3.72;;
32501;SDS011;18952;52.516;13.460;2022-09-09T07:51:59;9.55;;;3.10;;
32501;SDS011;18952;52.516;13.460;2022-09-09T07:54:27;9.18;;;3.13;;
32501;SDS011;18952;52.516;13.460;2022-09-09T07:56:55;11.20;;;3.85;;
32501;SDS011;18952;52.516;13.460;2022-09-09T07:59:24;12.55;;;3.55;;
32501;SDS011;18952;52.516;13.460;2022-09-09T08:01:52;11.55;;;3.47;;
32501;SDS011;18952;52.516;13.460;2022-09-09T08:04:19;8.88;;;3.42;;
32501;SDS011;18952;52.516;13.460;2022-09-09T08:06:52;10.13;;;3.38;;
32501;SDS011;18952;52.516;13.460;2022-09-09T08:09:21;8.50;;;3.13;;
32501;SDS011;18952;52.516;13.460;2022-09-09T08:11:50;9.80;;;2.90;;
32501;SDS011;18952;52.516;13.460;2022-09-09T08:14:18;7.28;;;2.63;;
32501;SDS011;18952;52.516;13.460;2022-09-09T08:16:47;8.90;;;2.65;;
32501;SDS011;18952;52.516;13.460;2022-09-09T08:19:15;8.70;;;2.95;;
32501;SDS011;18952;52.516;13.460;2022-09-09T08:21:43;8.43;;;3.20;;
32501;SDS011;18952;52.516;13.460;2022-09-09T08:24:11;9.93;;;2.88;;
32501;SDS011;18952;52.516;13.460;2022-09-09T08:26:43;8.60;;;3.25;;
32501;SDS011;18952;52.516;13.460;2022-09-09T08:29:13;9.85;;;3.20;;
32501;SDS011;18952;52.516;13.460;2022-09-09T08:31:47;8.82;;;2.95;;
32501;SDS011;18952;52.516;13.460;2022-09-09T08:34:23;7.50;;;2.90;;
32501;SDS011;18952;52.516;13.460;2022-09-09T08:36:52;5.75;;;2.75;;
32501;SDS011;18952;52.516;13.460;2022-09-09T08:39:21;9.27;;;3.47;;
32501;SDS011;18952;52.516;13.460;2022-09-09T08:53:02;7.93;;;2.80;;
32501;SDS011;18952;52.516;13.460;2022-09-09T08:55:56;9.20;;;2.72;;
32501;SDS011;18952;52.516;13.460;2022-09-09T09:03:56;7.30;;;2.50;;
32501;SDS011;18952;52.516;13.460;2022-09-09T09:12:00;6.53;;;2.25;;
32501;SDS011;18952;52.516;13.460;2022-09-09T09:14:30;10.23;;;2.42;;
32501;SDS011;18952;52.516;13.460;2022-09-09T09:19:34;8.85;;;2.60;;
32501;SDS011;18952;52.516;13.460;2022-09-09T09:22:24;10.40;;;2.63;;
32501;SDS011;18952;52.516;13.460;2022-09-09T09:25:20;7.65;;;2.35;;
32501;SDS011;18952;52.516;13.460;2022-09-09T09:36:15;8.38;;;2.90;;
32501;SDS011;18952;52.516;13.460;2022-09-09T09:38:57;12.85;;;2.95;;
32501;SDS011;18952;52.516;13.460;2022-09-09T09:41:46;12.45;;;2.75;;
32501;SDS011;18952;52.516;13.460;2022-09-09T09:44:24;9.48;;;2.55;;
32501;SDS011;18952;52.516;13.460;2022-09-09T09:50:00;9.95;;;4.20;;
32501;SDS011;18952;52.516;13.460;2022-09-09T09:52:29;7.28;;;2.33;;
32501;SDS011;18952;52.516;13.460;2022-09-09T09:54:58;8.18;;;2.90;;
32501;SDS011;18952;52.516;13.460;2022-09-09T09:57:34;9.82;;;2.58;;
32501;SDS011;18952;52.516;13.460;2022-09-09T10:02:41;7.88;;;2.70;;
32501;SDS011;18952;52.516;13.460;2022-09-09T10:05:17;5.72;;;2.35;;
32501;SDS011;18952;52.516;13.460;2022-09-09T10:16:29;6.65;;;2.28;;
32501;SDS011;18952;52.516;13.460;2022-09-09T10:19:01;8.25;;;2.47;;
32501;SDS011;18952;52.516;13.460;2022-09-09T10:21:56;8.93;;;2.80;;
32501;SDS011;18952;52.516;13.460;2022-09-09T10:24:53;7.72;;;2.85;;
32501;SDS011;18952;52.516;13.460;2022-09-09T10:28:08;9.93;;;2.88;;
32501;SDS011;18952;52.516;13.460;2022-09-09T10:31:07;8.40;;;2.50;;
32501;SDS011;18952;52.516;13.460;2022-09-09T10:34:12;7.13;;;2.45;;
32501;SDS011;18952;52.516;13.460;2022-09-09T10:37:01;9.05;;;2.63;;
32501;SDS011;18952;52.516;13.460;2022-09-09T10:39:44;8.25;;;2.38;;
32501;SDS011;18952;52.516;13.460;2022-09-09T10:42:14;7.78;;;2.70;;
32501;SDS011;18952;52.516;13.460;2022-09-09T10:53:52;11.63;;;2.53;;
32501;SDS011;18952;52.516;13.460;2022-09-09T10:56:20;7.07;;;2.30;;
32501;SDS011;18952;52.516;13.460;2022-09-09T10:58:52;9.02;;;2.05;;
32501;SDS011;18952;52.516;13.460;2022-09-09T11:01:27;8.63;;;2.70;;
32501;SDS011;18952;52.516;13.460;2022-09-09T11:04:45;8.18;;;2.38;;
32501;SDS011;18952;52.516;13.460;2022-09-09T11:09:53;9.23;;;2.10;;
32501;SDS011;18952;52.516;13.460;2022-09-09T11:12:27;6.87;;;2.23;;
32501;SDS011;18952;52.516;13.460;2022-09-09T11:14:59;6.13;;;2.03;;
32501;SDS011;18952;52.516;13.460;2022-09-09T11:17:36;10.38;;;2.15;;
32501;SDS011;18952;52.516;13.460;2022-09-09T11:20:11;7.75;;;3.47;;
32501;SDS011;18952;52.516;13.460;2022-09-09T11:23:03;10.48;;;2.60;;
32501;SDS011;18952;52.516;13.460;2022-09-09T11:25:39;7.68;;;2.50;;
32501;SDS011;18952;52.516;13.460;2022-09-09T11:28:32;11.13;;;3.40;;
32501;SDS011;18952;52.516;13.460;2022-09-09T11:33:55;10.77;;;2.83;;
32501;SDS011;18952;52.516;13.460;2022-09-09T11:41:51;9.27;;;2.38;;
32501;SDS011;18952;52.516;13.460;2022-09-09T11:44:19;7.15;;;2.20;;
32501;SDS011;18952;52.516;13.460;2022-09-09T11:46:55;8.23;;;2.35;;
32501;SDS011;18952;52.516;13.460;2022-09-09T11:49:41;7.20;;;2.35;;
32501;SDS011;18952;52.516;13.460;2022-09-09T11:54:48;8.80;;;2.10;;
32501;SDS011;18952;52.516;13.460;2022-09-09T11:57:25;12.02;;;2.67;;
32501;SDS011;18952;52.516;13.460;2022-09-09T12:00:00;8.02;;;2.42;;
32501;SDS011;18952;52.516;13.460;2022-09-09T12:02:27;11.02;;;2.47;;
32501;SDS011;18952;52.516;13.460;2022-09-09T12:13:07;5.45;;;2.17;;
32501;SDS011;18952;52.516;13.460;2022-09-09T12:15:48;5.18;;;2.10;;
32501;SDS011;18952;52.516;13.460;2022-09-09T12:18:35;5.18;;;1.70;;
32501;SDS011;18952;52.516;13.460;2022-09-09T12:21:18;7.47;;;1.73;;
32501;SDS011;18952;52.516;13.460;2022-09-09T12:24:01;7.83;;;1.90;;
32501;SDS011;18952;52.516;13.460;2022-09-09T12:26:35;6.28;;;1.52;;
32501;SDS011;18952;52.516;13.460;2022-09-09T12:32:13;8.23;;;1.48;;
32501;SDS011;18952;52.516;13.460;2022-09-09T12:40:28;10.05;;;2.30;;
32501;SDS011;18952;52.516;13.460;2022-09-09T12:42:56;5.50;;;1.65;;
32501;SDS011;18952;52.516;13.460;2022-09-09T12:45:24;3.83;;;1.30;;
32501;SDS011;18952;52.516;13.460;2022-09-09T12:47:56;6.60;;;2.20;;
32501;SDS011;18952;52.516;13.460;2022-09-09T12:50:31;5.93;;;2.28;;
32501;SDS011;18952;52.516;13.460;2022-09-09T12:53:12;5.25;;;1.40;;
32501;SDS011;18952;52.516;13.460;2022-09-09T12:55:52;6.82;;;1.90;;
32501;SDS011;18952;52.516;13.460;2022-09-09T12:58:36;4.65;;;1.90;;
32501;SDS011;18952;52.516;13.460;2022-09-09T13:01:23;7.20;;;2.05;;
32501;SDS011;18952;52.516;13.460;2022-09-09T13:03:51;8.88;;;2.20;;
32501;SDS011;18952;52.516;13.460;2022-09-09T13:06:24;7.35;;;2.30;;
32501;SDS011;18952;52.516;13.460;2022-09-09T13:08:56;6.88;;;1.48;;
32501;SDS011;18952;52.516;13.460;2022-09-09T13:11:35;5.55;;;1.67;;
32501;SDS011;18952;52.516;13.460;2022-09-09T13:14:17;6.95;;;1.77;;
32501;SDS011;18952;52.516;13.460;2022-09-09T13:16:58;5.68;;;2.25;;
32501;SDS011;18952;52.516;13.460;2022-09-09T13:19:28;5.97;;;1.88;;
32501;SDS011;18952;52.516;13.460;2022-09-09T13:21:58;6.38;;;1.40;;
32501;SDS011;18952;52.516;13.460;2022-09-09T13:24:32;8.70;;;1.77;;
32501;SDS011;18952;52.516;13.460;2022-09-09T13:27:05;5.00;;;1.57;;
32501;SDS011;18952;52.516;13.460;2022-09-09T13:29:53;4.80;;;1.50;;
32501;SDS011;18952;52.516;13.460;2022-09-09T13:32:20;6.45;;;1.80;;
32501;SDS011;18952;52.516;13.460;2022-09-09T13:37:49;5.00;;;1.52;;
32501;SDS011;18952;52.516;13.460;2022-09-09T13:40:18;9.43;;;1.90;;
32501;SDS011;18952;52.516;13.460;2022-09-09T13:42:50;5.70;;;1.65;;
32501;SDS011;18952;52.516;13.460;2022-09-09T13:45:21;7.22;;;1.60;;
32501;SDS011;18952;52.516;13.460;2022-09-09T13:47:50;6.28;;;1.80;;
32501;SDS011;18952;52.516;13.460;2022-09-09T13:50:30;6.95;;;1.77;;
32501;SDS011;18952;52.516;13.460;2022-09-09T13:52:58;8.70;;;2.10;;
32501;SDS011;18952;52.516;13.460;2022-09-09T13:55:27;5.55;;;1.70;;
32501;SDS011;18952;52.516;13.460;2022-09-09T13:57:55;7.40;;;1.77;;
32501;SDS011;18952;52.516;13.460;2022-09-09T14:00:31;5.68;;;1.92;;
32501;SDS011;18952;52.516;13.460;2022-09-09T14:03:00;4.82;;;1.45;;
32501;SDS011;18952;52.516;13.460;2022-09-09T14:05:30;7.75;;;1.73;;
32501;SDS011;18952;52.516;13.460;2022-09-09T14:08:00;5.78;;;2.03;;
32501;SDS011;18952;52.516;13.460;2022-09-09T14:10:27;8.68;;;2.03;;
32501;SDS011;18952;52.516;13.460;2022-09-09T14:12:55;4.35;;;1.60;;
32501;SDS011;18952;52.516;13.460;2022-09-09T14:15:26;5.47;;;1.73;;
32501;SDS011;18952;52.516;13.460;2022-09-09T14:17:54;7.25;;;2.45;;
32501;SDS011;18952;52.516;13.460;2022-09-09T14:20:22;5.95;;;1.92;;
32501;SDS011;18952;52.516;13.460;2022-09-09T14:22:50;5.97;;;1.65;;
32501;SDS011;18952;52.516;13.460;2022-09-09T14:25:18;10.02;;;1.58;;
32501;SDS011;18952;52.516;13.460;2022-09-09T14:27:45;5.80;;;2.08;;
32501;SDS011;18952;52.516;13.460;2022-09-09T14:30:13;6.38;;;2.28;;
32501;SDS011;18952;52.516;13.460;2022-09-09T14:32:39;6.30;;;2.17;;
32501;SDS011;18952;52.516;13.460;2022-09-09T14:35:08;5.60;;;2.30;;
32501;SDS011;18952;52.516;13.460;2022-09-09T14:37:36;7.07;;;1.77;;
32501;SDS011;18952;52.516;13.460;2022-09-09T14:40:02;6.07;;;2.38;;
32501;SDS011;18952;52.516;13.460;2022-09-09T14:42:29;7.00;;;1.80;;
32501;SDS011;18952;52.516;13.460;2022-09-09T14:44:57;7.85;;;2.40;;
32501;SDS011;18952;52.516;13.460;2022-09-09T14:47:25;8.45;;;1.80;;
32501;SDS011;18952;52.516;13.460;2022-09-09T14:49:54;4.57;;;1.65;;
32501;SDS011;18952;52.516;13.460;2022-09-09T14:52:21;4.63;;;1.60;;
32501;SDS011;18952;52.516;13.460;2022-09-09T14:54:48;6.82;;;2.08;;
32501;SDS011;18952;52.516;13.460;2022-09-09T14:57:15;3.92;;;1.27;;
32501;SDS011;18952;52.516;13.460;2022-09-09T14:59:43;7.78;;;1.95;;
32501;SDS011;18952;52.516;13.460;2022-09-09T15:02:11;5.20;;;1.85;;
32501;SDS011;18952;52.516;13.460;2022-09-09T15:04:37;6.05;;;1.92;;
32501;SDS011;18952;52.516;13.460;2022-09-09T15:07:05;5.78;;;2.00;;
32501;SDS011;18952;52.516;13.460;2022-09-09T15:09:33;7.65;;;2.45;;
32501;SDS011;18952;52.516;13.460;2022-09-09T15:12:01;7.03;;;2.17;;
32501;SDS011;18952;52.516;13.460;2022-09-09T15:14:29;7.82;;;2.70;;
32501;SDS011;18952;52.516;13.460;2022-09-09T15:16:56;9.60;;;3.55;;
32501;SDS011;18952;52.516;13.460;2022-09-09T15:19:24;9.93;;;3.40;;
32501;SDS011;18952;52.516;13.460;2022-09-09T15:21:51;9.85;;;4.72;;
32501;SDS011;18952;52.516;13.460;2022-09-09T15:24:19;7.38;;;2.58;;
32501;SDS011;18952;52.516;13.460;2022-09-09T15:26:46;5.63;;;2.22;;
32501;SDS011;18952;52.516;13.460;2022-09-09T15:29:13;5.00;;;1.88;;
32501;SDS011;18952;52.516;13.460;2022-09-09T15:31:41;3.90;;;1.80;;
32501;SDS011;18952;52.516;13.460;2022-09-09T15:34:09;5.10;;;2.10;;
32501;SDS011;18952;52.516;13.460;2022-09-09T15:36:37;10.30;;;1.77;;
32501;SDS011;18952;52.516;13.460;2022-09-09T15:39:09;5.72;;;1.67;;
32501;SDS011;18952;52.516;13.460;2022-09-09T15:41:38;4.85;;;2.00;;
32501;SDS011;18952;52.516;13.460;2022-09-09T15:44:08;12.57;;;1.90;;
32501;SDS011;18952;52.516;13.460;2022-09-09T15:46:48;4.30;;;1.63;;
32501;SDS011;18952;52.516;13.460;2022-09-09T15:49:23;13.27;;;2.95;;
32501;SDS011;18952;52.516;13.460;2022-09-09T15:54:33;6.90;;;3.80;;
32501;SDS011;18952;52.516;13.460;2022-09-09T15:57:03;6.35;;;2.40;;
32501;SDS011;18952;52.516;13.460;2022-09-09T15:59:31;6.25;;;2.35;;
32501;SDS011;18952;52.516;13.460;2022-09-09T16:02:02;6.07;;;2.03;;
32501;SDS011;18952;52.516;13.460;2022-09-09T16:04:29;4.75;;;1.83;;
32501;SDS011;18952;52.516;13.460;2022-09-09T16:07:01;8.35;;;2.55;;
32501;SDS011;18952;52.516;13.460;2022-09-09T16:09:30;4.63;;;2.25;;
32501;SDS011;18952;52.516;13.460;2022-09-09T16:11:58;8.02;;;3.55;;
32501;SDS011;18952;52.516;13.460;2022-09-09T16:14:27;3.40;;;1.42;;
32501;SDS011;18952;52.516;13.460;2022-09-09T16:16:55;7.32;;;2.20;;
32501;SDS011;18952;52.516;13.460;2022-09-09T16:19:26;6.60;;;2.92;;
32501;SDS011;18952;52.516;13.460;2022-09-09T16:21:54;5.53;;;2.30;;
32501;SDS011;18952;52.516;13.460;2022-09-09T16:24:21;5.93;;;2.55;;
32501;SDS011;18952;52.516;13.460;2022-09-09T16:26:51;6.07;;;2.78;;
32501;SDS011;18952;52.516;13.460;2022-09-09T16:29:21;6.53;;;2.15;;
32501;SDS011;18952;52.516;13.460;2022-09-09T16:31:49;6.15;;;2.13;;
32501;SDS011;18952;52.516;13.460;2022-09-09T16:34:18;7.75;;;2.30;;
32501;SDS011;18952;52.516;13.460;2022-09-09T16:36:47;6.45;;;2.70;;
32501;SDS011;18952;52.516;13.460;2022-09-09T16:39:15;5.70;;;2.85;;
32501;SDS011;18952;52.516;13.460;2022-09-09T16:41:45;8.75;;;3.10;;
32501;SDS011;18952;52.516;13.460;2022-09-09T16:44:13;6.97;;;3.03;;
32501;SDS011;18952;52.516;13.460;2022-09-09T16:46:42;9.02;;;2.53;;
32501;SDS011;18952;52.516;13.460;2022-09-09T16:49:12;7.13;;;3.03;;
32501;SDS011;18952;52.516;13.460;2022-09-09T16:51:46;8.70;;;2.95;;
32501;SDS011;18952;52.516;13.460;2022-09-09T16:54:15;7.75;;;3.45;;
32501;SDS011;18952;52.516;13.460;2022-09-09T16:56:45;7.63;;;3.17;;
32501;SDS011;18952;52.516;13.460;2022-09-09T16:59:18;5.80;;;2.30;;
32501;SDS011;18952;52.516;13.460;2022-09-09T17:01:48;7.43;;;2.70;;
32501;SDS011;18952;52.516;13.460;2022-09-09T17:04:25;8.23;;;2.85;;
32501;SDS011;18952;52.516;13.460;2022-09-09T17:06:53;12.55;;;4.30;;
32501;SDS011;18952;52.516;13.460;2022-09-09T17:09:22;22.23;;;5.28;;
32501;SDS011;18952;52.516;13.460;2022-09-09T17:11:52;15.48;;;4.82;;
32501;SDS011;18952;52.516;13.460;2022-09-09T17:14:22;11.48;;;3.97;;
32501;SDS011;18952;52.516;13.460;2022-09-09T17:16:50;13.95;;;4.63;;